createdAt,value
2022-09-17T00:01:29.061Z,7.10
2022-09-17T00:03:57.575Z,6.75
2022-09-17T00:06:25.547Z,7.22
2022-09-17T00:08:53.744Z,6.68
2022-09-17T00:11:25.505Z,7.38
2022-09-17T00:13:53.154Z,6.60
2022-09-17T00:16:40.377Z,6.18
2022-09-17T00:19:10.118Z,6.85
2022-09-17T00:21:37.287Z,6.30
2022-09-17T00:24:05.714Z,7.15
2022-09-17T00:26:33.358Z,6.30
2022-09-17T00:29:01.255Z,6.63
2022-09-17T00:31:29.405Z,6.75
2022-09-17T00:33:56.954Z,6.25
2022-09-17T00:36:24.122Z,5.75
2022-09-17T00:38:51.998Z,6.47
2022-09-17T00:41:19.456Z,6.90
2022-09-17T00:43:48.121Z,6.88
2022-09-17T00:46:31.325Z,7.00
2022-09-17T00:49:00.047Z,7.63
2022-09-17T00:51:31.937Z,7.93
2022-09-17T00:54:01.725Z,7.78
2022-09-17T00:56:30.547Z,8.02
2022-09-17T00:58:58.579Z,6.65
2022-09-17T01:01:25.846Z,7.15
2022-09-17T01:03:53.100Z,6.97
2022-09-17T01:06:23.428Z,7.40
2022-09-17T01:09:08.786Z,7.33
2022-09-17T01:11:39.086Z,7.10
2022-09-17T01:14:25.202Z,7.00
2022-09-17T01:17:14.833Z,6.03
2022-09-17T01:19:53.842Z,5.88
2022-09-17T01:22:21.542Z,5.57
2022-09-17T01:24:51.761Z,5.90
2022-09-17T01:27:29.702Z,5.80
2022-09-17T01:30:09.096Z,5.40
2022-09-17T01:32:53.066Z,5.55
2022-09-17T01:35:33.584Z,5.10
2022-09-17T01:38:11.831Z,6.25
2022-09-17T01:40:46.463Z,5.82
2022-09-17T01:43:21.583Z,5.60
2022-09-17T01:45:52.702Z,6.30
2022-09-17T01:48:21.214Z,6.28
2022-09-17T01:50:53.489Z,5.63
2022-09-17T01:53:23.521Z,5.35
2022-09-17T01:55:51.970Z,5.55
2022-09-17T01:58:22.676Z,5.85
2022-09-17T02:00:53.666Z,5.70
2022-09-17T02:03:20.782Z,5.88
2022-09-17T02:05:53.120Z,5.32
2022-09-17T02:08:40.760Z,5.50
2022-09-17T02:11:13.820Z,5.30
2022-09-17T02:13:47.953Z,6.30
2022-09-17T02:16:20.958Z,5.93
2022-09-17T02:18:54.605Z,5.97
2022-09-17T02:21:27.471Z,5.72
2022-09-17T02:24:14.719Z,6.57
2022-09-17T02:26:45.955Z,5.78
2022-09-17T02:31:41.959Z,6.57
2022-09-17T02:34:10.443Z,5.93
2022-09-17T02:36:37.769Z,5.97
2022-09-17T02:39:05.448Z,6.68
2022-09-17T02:41:52.981Z,5.93
2022-09-17T02:44:23.114Z,6.38
2022-09-17T02:46:59.367Z,5.97
2022-09-17T02:49:35.576Z,7.20
2022-09-17T02:52:11.672Z,6.38
2022-09-17T02:54:46.423Z,6.25
2022-09-17T02:57:21.762Z,6.43
2022-09-17T03:00:05.142Z,7.28
2022-09-17T03:02:42.322Z,6.68
2022-09-17T03:05:10.081Z,6.45
2022-09-17T03:07:37.722Z,6.35
2022-09-17T03:10:05.439Z,7.00
2022-09-17T03:12:32.722Z,6.47
2022-09-17T03:14:59.876Z,6.65
2022-09-17T03:17:27.085Z,6.70
2022-09-17T03:19:54.243Z,7.78
2022-09-17T03:22:21.349Z,7.75
2022-09-17T03:24:48.619Z,7.25
2022-09-17T03:27:15.813Z,7.32
2022-09-17T03:29:42.937Z,7.53
2022-09-17T03:32:10.545Z,7.72
2022-09-17T03:34:37.671Z,7.43
2022-09-17T03:37:04.852Z,7.50
2022-09-17T03:39:32.036Z,7.78
2022-09-17T03:41:59.164Z,7.78
2022-09-17T03:44:26.295Z,7.63
2022-09-17T03:46:53.532Z,8.27
2022-09-17T03:49:20.763Z,8.60
2022-09-17T03:51:47.894Z,9.77
2022-09-17T03:54:15.074Z,9.45
2022-09-17T03:56:42.228Z,10.27
2022-09-17T03:59:09.444Z,10.98
2022-09-17T04:01:36.987Z,9.50
2022-09-17T04:04:04.717Z,9.57
2022-09-17T04:06:31.857Z,8.82
2022-09-17T04:09:00.949Z,8.35
2022-09-17T04:11:28.152Z,7.45
2022-09-17T04:13:55.331Z,7.85
2022-09-17T04:16:22.611Z,7.60
2022-09-17T04:18:49.843Z,7.38
2022-09-17T04:21:16.948Z,7.57
2022-09-17T04:23:44.103Z,7.85
2022-09-17T04:26:11.286Z,7.60
2022-09-17T04:28:38.574Z,7.38
2022-09-17T04:31:05.940Z,8.98
2022-09-17T04:33:33.221Z,7.68
2022-09-17T04:36:00.351Z,8.30
2022-09-17T04:38:27.748Z,7.68
2022-09-17T04:40:57.274Z,8.10
2022-09-17T04:43:24.451Z,8.73
2022-09-17T04:45:51.656Z,8.90
2022-09-17T04:48:18.767Z,9.32
2022-09-17T04:50:45.958Z,8.85
2022-09-17T04:53:13.300Z,9.38
2022-09-17T04:55:40.443Z,9.00
2022-09-17T04:58:07.580Z,8.48
2022-09-17T05:00:35.601Z,8.07
2022-09-17T05:03:02.832Z,8.38
2022-09-17T05:05:30.071Z,7.70
2022-09-17T05:07:57.368Z,8.45
2022-09-17T05:10:24.650Z,8.50
2022-09-17T05:12:52.462Z,8.40
2022-09-17T05:15:19.781Z,7.10
2022-09-17T05:17:47.057Z,7.63
2022-09-17T05:20:15.314Z,7.80
2022-09-17T05:22:46.350Z,7.72
2022-09-17T05:25:14.236Z,7.85
2022-09-17T05:27:41.401Z,8.65
2022-09-17T05:30:09.423Z,7.30
2022-09-17T05:32:37.206Z,8.38
2022-09-17T05:35:05.966Z,7.25
2022-09-17T05:37:33.571Z,7.28
2022-09-17T05:40:00.743Z,8.00
2022-09-17T05:42:28.129Z,7.80
2022-09-17T05:44:55.430Z,8.05
2022-09-17T05:47:22.564Z,7.93
2022-09-17T05:49:49.688Z,7.55
2022-09-17T05:52:16.977Z,7.63
2022-09-17T05:54:44.748Z,7.00
2022-09-17T05:57:12.111Z,7.40
2022-09-17T05:59:39.284Z,7.05
2022-09-17T06:02:06.490Z,7.13
2022-09-17T06:04:35.004Z,8.40
2022-09-17T06:07:06.111Z,8.13
2022-09-17T06:09:33.256Z,8.68
2022-09-17T06:12:00.389Z,8.77
2022-09-17T06:14:27.619Z,7.93
2022-09-17T06:16:54.904Z,8.27
2022-09-17T06:19:22.118Z,8.27
2022-09-17T06:21:50.530Z,8.18
2022-09-17T06:24:17.738Z,9.02
2022-09-17T06:26:45.322Z,8.80
2022-09-17T06:29:15.237Z,8.82
2022-09-17T06:31:44.846Z,7.82
2022-09-17T06:34:12.490Z,8.40
2022-09-17T06:36:39.709Z,8.02
2022-09-17T06:39:06.969Z,7.95
2022-09-17T06:41:34.177Z,8.35
2022-09-17T06:44:02.228Z,7.90
2022-09-17T06:46:29.438Z,7.78
2022-09-17T06:48:56.650Z,8.30
2022-09-17T06:51:23.971Z,8.63
2022-09-17T06:53:51.320Z,8.77
2022-09-17T06:56:18.606Z,7.53
2022-09-17T06:58:46.933Z,7.65
2022-09-17T07:01:14.380Z,7.13
2022-09-17T07:03:43.434Z,8.23
2022-09-17T07:06:11.060Z,8.95
2022-09-17T07:08:39.440Z,7.93
2022-09-17T07:11:06.810Z,8.60
2022-09-17T07:13:34.071Z,7.40
2022-09-17T07:16:02.331Z,7.63
2022-09-17T07:18:29.789Z,7.70
2022-09-17T07:21:00.749Z,7.55
2022-09-17T07:23:29.233Z,7.10
2022-09-17T07:25:57.380Z,6.30
2022-09-17T07:28:25.154Z,6.47
2022-09-17T07:30:52.934Z,6.07
2022-09-17T07:33:23.358Z,7.15
2022-09-17T07:35:57.391Z,6.63
2022-09-17T07:38:24.966Z,6.55
2022-09-17T07:40:58.952Z,6.13
2022-09-17T07:43:26.948Z,7.10
2022-09-17T07:45:54.577Z,5.90
2022-09-17T07:48:22.196Z,6.60
2022-09-17T07:50:49.768Z,7.70
2022-09-17T07:53:17.030Z,7.13
2022-09-17T07:55:44.339Z,8.65
2022-09-17T07:58:11.447Z,10.15
2022-09-17T08:00:38.625Z,10.70
2022-09-17T08:03:06.808Z,10.50
2022-09-17T08:05:34.007Z,10.13
2022-09-17T08:08:01.146Z,10.65
2022-09-17T08:10:28.504Z,9.80
2022-09-17T08:12:57.109Z,10.27
2022-09-17T08:15:25.130Z,10.07
2022-09-17T08:17:52.838Z,10.25
2022-09-17T08:20:24.205Z,10.63
2022-09-17T08:22:51.310Z,9.00
2022-09-17T08:25:18.858Z,9.15
2022-09-17T08:27:45.979Z,9.32
2022-09-17T08:30:13.190Z,8.30
2022-09-17T08:32:40.361Z,7.70
2022-09-17T08:35:07.656Z,8.50
2022-09-17T08:37:35.438Z,7.32
2022-09-17T08:40:02.838Z,7.78
2022-09-17T08:42:47.434Z,7.90
2022-09-17T08:45:19.096Z,8.15
2022-09-17T08:47:48.187Z,7.90
2022-09-17T08:50:18.138Z,7.93
2022-09-17T08:53:04.405Z,7.38
2022-09-17T08:55:43.486Z,8.57
2022-09-17T08:58:29.381Z,7.05
2022-09-17T09:01:16.800Z,6.70
2022-09-17T09:04:04.028Z,5.95
2022-09-17T09:06:33.910Z,6.07
2022-09-17T09:09:04.109Z,6.10
2022-09-17T09:11:31.904Z,6.20
2022-09-17T09:14:14.141Z,6.50
2022-09-17T09:16:42.368Z,6.95
2022-09-17T09:19:29.808Z,6.82
2022-09-17T09:22:07.053Z,6.05
2022-09-17T09:24:37.112Z,5.25
2022-09-17T09:27:20.367Z,5.63
2022-09-17T09:29:53.329Z,6.38
2022-09-17T09:32:52.808Z,4.80
2022-09-17T09:35:33.761Z,4.88
2022-09-17T09:38:23.437Z,4.90
2022-09-17T09:41:09.715Z,4.88
2022-09-17T09:43:59.979Z,5.18
2022-09-17T09:46:30.137Z,5.50
2022-09-17T09:49:00.678Z,4.63
2022-09-17T09:51:31.024Z,4.72
2022-09-17T09:54:01.834Z,6.78
2022-09-17T09:56:31.796Z,5.82
2022-09-17T09:58:59.033Z,5.57
2022-09-17T10:01:27.797Z,5.20
2022-09-17T10:03:58.294Z,5.03
2022-09-17T10:06:25.868Z,4.70
2022-09-17T10:08:55.852Z,4.85
2022-09-17T10:11:25.057Z,5.25
2022-09-17T10:13:52.215Z,5.30
2022-09-17T10:16:25.213Z,5.18
2022-09-17T10:19:04.449Z,4.97
2022-09-17T10:21:36.396Z,4.78
2022-09-17T10:24:05.145Z,5.60
2022-09-17T10:26:32.223Z,5.05
2022-09-17T10:29:00.956Z,5.00
2022-09-17T10:31:28.260Z,5.18
2022-09-17T10:33:55.406Z,5.72
2022-09-17T10:36:38.187Z,5.20
2022-09-17T10:39:28.636Z,5.40
2022-09-17T10:42:13.805Z,4.87
2022-09-17T10:44:51.260Z,5.65
2022-09-17T10:47:22.854Z,5.53
2022-09-17T10:49:54.684Z,6.03
2022-09-17T10:52:30.094Z,6.65
2022-09-17T10:55:15.241Z,5.07
2022-09-17T10:57:57.613Z,5.20
2022-09-17T11:00:25.398Z,5.30
2022-09-17T11:02:58.812Z,5.63
2022-09-17T11:05:38.846Z,5.55
2022-09-17T11:08:15.239Z,5.60
2022-09-17T11:10:48.510Z,5.53
2022-09-17T11:13:34.056Z,4.80
2022-09-17T11:16:12.200Z,5.50
2022-09-17T11:18:44.050Z,5.53
2022-09-17T11:21:46.653Z,5.40
2022-09-17T11:24:36.783Z,6.03
2022-09-17T11:27:22.712Z,5.57
2022-09-17T11:30:08.937Z,5.80
2022-09-17T11:32:51.569Z,6.32
2022-09-17T11:35:24.701Z,6.60
2022-09-17T11:37:59.194Z,5.97
2022-09-17T11:40:36.971Z,6.80
2022-09-17T11:43:09.916Z,7.38
2022-09-17T11:45:42.426Z,6.55
2022-09-17T11:48:21.246Z,6.85
2022-09-17T11:50:54.497Z,7.18
2022-09-17T11:53:24.693Z,7.28
2022-09-17T11:55:53.969Z,7.10
2022-09-17T11:58:29.074Z,7.63
2022-09-17T12:01:01.731Z,8.25
2022-09-17T12:03:33.733Z,7.80
2022-09-17T12:06:08.782Z,7.88
2022-09-17T12:08:57.749Z,7.78
2022-09-17T12:11:29.974Z,7.85
2022-09-17T12:14:01.853Z,8.30
2022-09-17T12:16:32.024Z,8.63
2022-09-17T12:19:11.489Z,8.37
2022-09-17T12:21:41.248Z,8.60
2022-09-17T12:24:11.482Z,8.25
2022-09-17T12:26:47.618Z,8.63
2022-09-17T12:29:14.872Z,8.13
2022-09-17T12:31:42.017Z,8.52
2022-09-17T12:34:20.387Z,9.18
2022-09-17T12:37:09.841Z,8.95
2022-09-17T12:39:55.489Z,9.23
2022-09-17T12:42:35.467Z,9.40
2022-09-17T12:45:10.179Z,9.65
2022-09-17T12:47:56.140Z,9.27
2022-09-17T12:50:26.831Z,10.52
2022-09-17T12:52:54.028Z,10.65
2022-09-17T12:55:31.208Z,10.65
2022-09-17T12:58:23.583Z,12.52
2022-09-17T13:00:56.811Z,11.95
2022-09-17T13:03:36.125Z,11.23
2022-09-17T13:06:21.835Z,11.30
2022-09-17T13:08:52.602Z,11.55
2022-09-17T13:11:19.698Z,10.40
2022-09-17T13:13:52.074Z,10.63
2022-09-17T13:16:31.452Z,9.77
2022-09-17T13:19:15.432Z,10.90
2022-09-17T13:21:55.709Z,11.15
2022-09-17T13:24:29.833Z,10.95
2022-09-17T13:26:58.614Z,11.93
2022-09-17T13:29:47.049Z,10.43
2022-09-17T13:32:40.568Z,9.90
2022-09-17T13:35:09.512Z,10.00
2022-09-17T13:37:39.042Z,11.98
2022-09-17T13:40:20.211Z,11.13
2022-09-17T13:42:51.495Z,10.95
2022-09-17T13:47:48.720Z,10.95
2022-09-17T13:50:36.261Z,9.18
2022-09-17T13:53:17.716Z,8.95
2022-09-17T13:55:44.833Z,8.23
2022-09-17T13:58:21.013Z,8.48
2022-09-17T14:01:00.170Z,8.43
2022-09-17T14:03:44.690Z,7.65
2022-09-17T14:06:11.958Z,8.52
2022-09-17T14:08:45.390Z,7.28
2022-09-17T14:11:32.370Z,7.57
2022-09-17T14:13:59.620Z,7.53
2022-09-17T14:16:36.935Z,7.95
2022-09-17T14:19:24.510Z,7.60
2022-09-17T14:22:04.035Z,8.43
2022-09-17T14:24:46.402Z,9.63
2022-09-17T14:27:22.498Z,10.55
2022-09-17T14:29:55.523Z,9.30
2022-09-17T14:32:30.056Z,9.98
2022-09-17T14:34:57.417Z,10.77
2022-09-17T14:37:24.882Z,11.60
2022-09-17T14:39:53.139Z,13.30
2022-09-17T14:42:23.425Z,13.27
2022-09-17T14:44:58.771Z,13.37
2022-09-17T14:47:27.099Z,13.90
2022-09-17T14:49:54.724Z,14.20
2022-09-17T14:52:26.700Z,14.38
2022-09-17T14:55:09.891Z,15.05
2022-09-17T14:57:37.591Z,15.00
2022-09-17T15:00:10.796Z,14.95
2022-09-17T15:02:44.161Z,15.23
2022-09-17T15:05:20.679Z,16.55
2022-09-17T15:07:48.094Z,17.15
2022-09-17T15:10:19.923Z,15.65
2022-09-17T15:12:47.728Z,16.85
2022-09-17T15:15:23.195Z,15.88
2022-09-17T15:17:51.194Z,15.15
2022-09-17T15:20:23.117Z,15.52
2022-09-17T15:22:55.996Z,17.70
2022-09-17T15:25:25.587Z,18.35
2022-09-17T15:27:55.582Z,16.77
2022-09-17T15:30:26.353Z,16.98
2022-09-17T15:32:57.799Z,17.00
2022-09-17T15:35:25.859Z,16.65
2022-09-17T15:40:42.215Z,14.35
2022-09-17T15:43:18.329Z,15.32
2022-09-17T15:45:45.611Z,16.73
2022-09-17T15:48:22.054Z,15.00
2022-09-17T15:50:56.910Z,14.63
2022-09-17T15:53:31.362Z,14.77
2022-09-17T15:56:04.308Z,16.33
2022-09-17T15:58:36.166Z,16.02
2022-09-17T16:01:12.423Z,15.05
2022-09-17T16:03:39.818Z,15.23
2022-09-17T16:06:19.390Z,15.85
2022-09-17T16:08:47.609Z,16.52
2022-09-17T16:11:18.353Z,16.65
2022-09-17T16:13:48.969Z,17.15
2022-09-17T16:16:17.447Z,18.00
2022-09-17T16:18:44.698Z,17.20
2022-09-17T16:21:12.581Z,18.48
2022-09-17T16:23:39.713Z,18.00
2022-09-17T16:26:07.232Z,17.85
2022-09-17T16:28:34.767Z,17.90
2022-09-17T16:31:01.962Z,17.75
2022-09-17T16:33:29.184Z,16.85
2022-09-17T16:35:59.786Z,19.13
2022-09-17T16:38:26.959Z,18.92
2022-09-17T16:40:54.082Z,16.13
2022-09-17T16:43:21.407Z,15.88
2022-09-17T16:46:05.425Z,17.17
2022-09-17T16:48:33.316Z,16.63
2022-09-17T16:51:01.565Z,17.15
2022-09-17T16:53:28.680Z,17.33
2022-09-17T16:55:55.975Z,18.20
2022-09-17T16:58:23.672Z,17.10
2022-09-17T17:00:50.839Z,16.17
2022-09-17T17:03:18.122Z,16.23
2022-09-17T17:05:45.277Z,16.52
2022-09-17T17:08:14.543Z,17.15
2022-09-17T17:10:41.850Z,15.70
2022-09-17T17:13:08.986Z,16.50
2022-09-17T17:15:36.139Z,16.38
2022-09-17T17:18:03.414Z,17.75
2022-09-17T17:20:32.037Z,18.15
2022-09-17T17:22:59.161Z,18.73
2022-09-17T17:25:27.218Z,17.92
2022-09-17T17:27:54.348Z,18.60
2022-09-17T17:30:22.115Z,19.83
2022-09-17T17:32:53.141Z,19.25
2022-09-17T17:35:20.866Z,19.80
2022-09-17T17:37:48.658Z,20.20
2022-09-17T17:40:16.719Z,20.95
2022-09-17T17:42:47.133Z,19.50
2022-09-17T17:45:15.517Z,19.95
2022-09-17T17:47:42.816Z,20.50
2022-09-17T17:50:10.654Z,19.40
2022-09-17T17:52:39.087Z,17.88
2022-09-17T17:55:07.125Z,18.27
2022-09-17T17:57:34.240Z,18.08
2022-09-17T18:00:01.597Z,17.83
2022-09-17T18:02:28.922Z,18.77
2022-09-17T18:04:57.347Z,16.85
2022-09-17T18:07:25.964Z,16.33
2022-09-17T18:09:53.165Z,15.27
2022-09-17T18:12:23.831Z,16.50
2022-09-17T18:14:53.918Z,15.90
2022-09-17T18:17:21.072Z,16.88
2022-09-17T18:19:48.175Z,16.33
2022-09-17T18:22:15.606Z,16.70
2022-09-17T18:24:42.768Z,17.05
2022-09-17T18:27:09.938Z,17.38
2022-09-17T18:29:37.108Z,17.45
2022-09-17T18:32:04.263Z,17.27
2022-09-17T18:34:32.245Z,18.58
2022-09-17T18:36:59.546Z,18.38
2022-09-17T18:39:57.377Z,18.23
2022-09-17T18:42:13.919Z,19.40
2022-09-17T18:44:41.055Z,19.35
2022-09-17T18:47:08.179Z,19.90
2022-09-17T18:49:35.454Z,20.50
2022-09-17T18:52:02.701Z,19.60
2022-09-17T18:54:29.813Z,21.02
2022-09-17T18:56:58.373Z,20.17
2022-09-17T18:59:25.560Z,20.65
2022-09-17T19:01:52.797Z,20.80
2022-09-17T19:04:20.037Z,21.08
2022-09-17T19:06:47.149Z,21.08
2022-09-17T19:09:14.321Z,19.67
2022-09-17T19:11:41.565Z,20.45
2022-09-17T19:14:10.530Z,17.40
2022-09-17T19:16:38.124Z,19.27
2022-09-17T19:19:05.319Z,17.38
2022-09-17T19:21:32.431Z,17.02
2022-09-17T19:23:59.565Z,18.65
2022-09-17T19:26:27.672Z,17.25
2022-09-17T19:28:55.886Z,17.92
2022-09-17T19:31:23.123Z,18.00
2022-09-17T19:33:51.457Z,17.60
2022-09-17T19:36:19.353Z,18.35
2022-09-17T19:38:46.972Z,17.85
2022-09-17T19:41:18.171Z,17.33
2022-09-17T19:46:12.475Z,16.13
2022-09-17T19:48:46.791Z,16.05
2022-09-17T19:51:14.138Z,17.30
2022-09-17T19:53:41.369Z,15.80
2022-09-17T19:56:11.533Z,14.65
2022-09-17T19:58:38.738Z,16.88
2022-09-17T20:01:06.064Z,17.02
2022-09-17T20:03:33.297Z,17.65
2022-09-17T20:06:05.292Z,17.80
2022-09-17T20:08:32.837Z,17.95
2022-09-17T20:11:07.455Z,18.42
2022-09-17T20:13:34.809Z,18.80
2022-09-17T20:16:09.157Z,18.40
2022-09-17T20:18:36.897Z,18.20
2022-09-17T20:21:11.018Z,18.48
2022-09-17T20:23:38.144Z,18.30
2022-09-17T20:26:05.671Z,18.25
2022-09-17T20:28:33.457Z,18.83
2022-09-17T20:31:04.753Z,16.60
2022-09-17T20:33:31.979Z,15.05
2022-09-17T20:36:00.277Z,15.30
2022-09-17T20:41:14.964Z,14.43
2022-09-17T20:43:43.061Z,14.40
2022-09-17T20:46:11.532Z,14.63
2022-09-17T20:48:38.774Z,15.40
2022-09-17T20:51:11.584Z,15.68
2022-09-17T20:53:39.477Z,15.65
2022-09-17T20:56:06.615Z,16.20
2022-09-17T20:58:35.193Z,17.50
2022-09-17T21:01:06.513Z,17.95
2022-09-17T21:03:33.756Z,16.63
2022-09-17T21:06:00.879Z,16.48
2022-09-17T21:08:28.737Z,15.80
2022-09-17T21:10:55.879Z,15.38
2022-09-17T21:13:23.252Z,16.52
2022-09-17T21:15:57.813Z,15.88
2022-09-17T21:18:25.242Z,14.82
2022-09-17T21:20:52.493Z,14.80
2022-09-17T21:23:26.595Z,13.40
2022-09-17T21:25:54.047Z,13.70
2022-09-17T21:28:21.800Z,14.07
2022-09-17T21:30:49.282Z,14.80
2022-09-17T21:33:22.098Z,17.92
2022-09-17T21:35:50.744Z,15.90
2022-09-17T21:38:23.037Z,18.50
2022-09-17T21:40:57.099Z,18.02
2022-09-17T21:43:24.943Z,17.80
2022-09-17T21:45:59.579Z,18.60
2022-09-17T21:48:27.105Z,17.23
2022-09-17T21:50:54.809Z,15.05
2022-09-17T21:53:22.144Z,15.32
2022-09-17T21:55:49.315Z,13.85
2022-09-17T21:58:16.492Z,13.50
2022-09-17T22:00:43.678Z,13.10
2022-09-17T22:03:10.872Z,13.25
2022-09-17T22:05:38.060Z,13.88
2022-09-17T22:08:05.413Z,13.65
2022-09-17T22:10:32.590Z,14.38
2022-09-17T22:13:00.145Z,13.93
2022-09-17T22:15:27.812Z,13.68
2022-09-17T22:17:54.942Z,13.27
2022-09-17T22:20:25.555Z,12.75
2022-09-17T22:22:52.826Z,13.73
2022-09-17T22:25:19.969Z,13.45
2022-09-17T22:28:10.048Z,14.00
2022-09-17T22:30:36.845Z,15.48
2022-09-17T22:33:03.975Z,15.27
2022-09-17T22:35:31.607Z,13.55
2022-09-17T22:37:58.818Z,14.88
2022-09-17T22:40:28.848Z,15.95
2022-09-17T22:42:56.028Z,15.88
2022-09-17T22:45:23.193Z,16.75
2022-09-17T22:47:50.302Z,17.20
2022-09-17T22:50:17.505Z,18.13
2022-09-17T22:52:44.674Z,19.55
2022-09-17T22:55:12.373Z,17.45
2022-09-17T22:57:39.527Z,18.50
2022-09-17T23:00:08.269Z,15.77
2022-09-17T23:02:35.756Z,16.38
2022-09-17T23:05:02.884Z,15.10
2022-09-17T23:07:30.080Z,16.92
2022-09-17T23:09:57.211Z,18.23
2022-09-17T23:12:24.330Z,22.30
2022-09-17T23:14:51.546Z,22.73
2022-09-17T23:17:18.714Z,23.67
2022-09-17T23:19:45.878Z,27.33
2022-09-17T23:22:13.126Z,26.95
2022-09-17T23:24:40.249Z,26.88
2022-09-17T23:27:07.375Z,26.52
2022-09-17T23:29:34.616Z,26.85
2022-09-17T23:32:02.279Z,26.05
2022-09-17T23:34:29.417Z,22.83
2022-09-17T23:36:56.612Z,21.63
2022-09-17T23:39:23.744Z,20.20
2022-09-17T23:41:50.879Z,19.52
2022-09-17T23:44:18.104Z,17.65
2022-09-17T23:46:46.217Z,17.02
2022-09-17T23:49:14.302Z,14.75
2022-09-17T23:51:41.865Z,13.77
2022-09-17T23:54:09.397Z,12.13
2022-09-17T23:56:36.529Z,11.18
2022-09-17T23:59:04.728Z,11.68
